sensor_id;sensor_type;location;lat;lon;timestamp;P1;durP1;ratioP1;P2;durP2;ratioP2
53439;SDS011;39333;47.044;15.080;2022-10-16T00:01:09;143.27;;;136.27;;
53439;SDS011;39333;47.044;15.080;2022-10-16T00:03:39;149.70;;;142.82;;
53439;SDS011;39333;47.044;15.080;2022-10-16T00:06:07;147.90;;;140.88;;
53439;SDS011;39333;47.044;15.080;2022-10-16T00:08:36;147.80;;;140.65;;
53439;SDS011;39333;47.044;15.080;2022-10-16T00:11:08;143.48;;;136.45;;
53439;SDS011;39333;47.044;15.080;2022-10-16T00:13:38;150.40;;;143.40;;
53439;SDS011;39333;47.044;15.080;2022-10-16T00:16:06;150.02;;;143.18;;
53439;SDS011;39333;47.044;15.080;2022-10-16T00:18:34;146.20;;;139.05;;
53439;SDS011;39333;47.044;15.080;2022-10-16T00:23:39;156.77;;;149.07;;
53439;SDS011;39333;47.044;15.080;2022-10-16T00:26:07;147.68;;;140.05;;
53439;SDS011;39333;47.044;15.080;2022-10-16T00:28:42;141.52;;;134.80;;
53439;SDS011;39333;47.044;15.080;2022-10-16T00:31:10;146.38;;;139.77;;
53439;SDS011;39333;47.044;15.080;2022-10-16T00:33:39;142.35;;;135.65;;
53439;SDS011;39333;47.044;15.080;2022-10-16T00:36:06;155.93;;;148.50;;
53439;SDS011;39333;47.044;15.080;2022-10-16T00:38:35;153.48;;;146.27;;
53439;SDS011;39333;47.044;15.080;2022-10-16T00:41:05;154.15;;;147.07;;
53439;SDS011;39333;47.044;15.080;2022-10-16T00:43:44;145.38;;;138.38;;
53439;SDS011;39333;47.044;15.080;2022-10-16T00:51:40;149.13;;;142.18;;
53439;SDS011;39333;47.044;15.080;2022-10-16T00:54:13;140.50;;;134.02;;
53439;SDS011;39333;47.044;15.080;2022-10-16T00:56:43;147.70;;;139.93;;
53439;SDS011;39333;47.044;15.080;2022-10-16T00:59:13;163.27;;;154.85;;
53439;SDS011;39333;47.044;15.080;2022-10-16T01:01:43;150.60;;;143.38;;
53439;SDS011;39333;47.044;15.080;2022-10-16T01:04:09;146.90;;;139.88;;
53439;SDS011;39333;47.044;15.080;2022-10-16T01:09:26;143.32;;;136.43;;
53439;SDS011;39333;47.044;15.080;2022-10-16T01:12:13;153.48;;;145.90;;
53439;SDS011;39333;47.044;15.080;2022-10-16T01:17:22;151.13;;;144.00;;
53439;SDS011;39333;47.044;15.080;2022-10-16T01:22:56;143.10;;;136.27;;
53439;SDS011;39333;47.044;15.080;2022-10-16T01:28:11;143.60;;;136.80;;
53439;SDS011;39333;47.044;15.080;2022-10-16T01:30:41;146.30;;;139.18;;
53439;SDS011;39333;47.044;15.080;2022-10-16T01:33:16;143.90;;;137.15;;
53439;SDS011;39333;47.044;15.080;2022-10-16T01:35:52;143.02;;;136.45;;
53439;SDS011;39333;47.044;15.080;2022-10-16T01:38:24;145.65;;;138.57;;
53439;SDS011;39333;47.044;15.080;2022-10-16T01:40:59;152.82;;;145.57;;
53439;SDS011;39333;47.044;15.080;2022-10-16T01:43:32;149.27;;;142.00;;
53439;SDS011;39333;47.044;15.080;2022-10-16T01:46:01;143.68;;;136.95;;
53439;SDS011;39333;47.044;15.080;2022-10-16T01:48:29;141.05;;;134.60;;
53439;SDS011;39333;47.044;15.080;2022-10-16T01:51:01;144.55;;;137.85;;
53439;SDS011;39333;47.044;15.080;2022-10-16T01:53:31;141.90;;;135.07;;
53439;SDS011;39333;47.044;15.080;2022-10-16T01:55:59;151.10;;;144.02;;
53439;SDS011;39333;47.044;15.080;2022-10-16T01:58:28;142.95;;;136.35;;
53439;SDS011;39333;47.044;15.080;2022-10-16T02:01:01;150.77;;;143.65;;
53439;SDS011;39333;47.044;15.080;2022-10-16T02:03:30;152.15;;;145.05;;
53439;SDS011;39333;47.044;15.080;2022-10-16T02:06:00;142.73;;;136.07;;
53439;SDS011;39333;47.044;15.080;2022-10-16T02:08:27;146.32;;;139.35;;
53439;SDS011;39333;47.044;15.080;2022-10-16T02:10:56;146.23;;;139.13;;
53439;SDS011;39333;47.044;15.080;2022-10-16T02:16:04;147.48;;;140.55;;
53439;SDS011;39333;47.044;15.080;2022-10-16T02:18:31;144.25;;;137.45;;
53439;SDS011;39333;47.044;15.080;2022-10-16T02:26:47;138.48;;;131.98;;
53439;SDS011;39333;47.044;15.080;2022-10-16T02:29:20;143.32;;;136.75;;
53439;SDS011;39333;47.044;15.080;2022-10-16T02:31:53;142.70;;;136.07;;
53439;SDS011;39333;47.044;15.080;2022-10-16T02:34:23;139.07;;;132.45;;
53439;SDS011;39333;47.044;15.080;2022-10-16T02:36:52;140.45;;;133.75;;
53439;SDS011;39333;47.044;15.080;2022-10-16T02:39:19;141.90;;;135.23;;
53439;SDS011;39333;47.044;15.080;2022-10-16T02:41:47;145.98;;;139.30;;
53439;SDS011;39333;47.044;15.080;2022-10-16T02:44:14;138.10;;;131.90;;
53439;SDS011;39333;47.044;15.080;2022-10-16T02:46:41;140.35;;;133.85;;
53439;SDS011;39333;47.044;15.080;2022-10-16T02:49:07;140.13;;;133.43;;
53439;SDS011;39333;47.044;15.080;2022-10-16T02:51:34;150.50;;;143.60;;
53439;SDS011;39333;47.044;15.080;2022-10-16T02:54:01;149.27;;;142.57;;
53439;SDS011;39333;47.044;15.080;2022-10-16T02:56:28;152.48;;;145.43;;
53439;SDS011;39333;47.044;15.080;2022-10-16T02:58:56;143.82;;;137.27;;
53439;SDS011;39333;47.044;15.080;2022-10-16T03:01:23;148.77;;;142.10;;
53439;SDS011;39333;47.044;15.080;2022-10-16T03:03:50;137.57;;;131.45;;
53439;SDS011;39333;47.044;15.080;2022-10-16T03:06:17;143.10;;;136.75;;
53439;SDS011;39333;47.044;15.080;2022-10-16T03:08:43;136.75;;;130.52;;
53439;SDS011;39333;47.044;15.080;2022-10-16T03:11:10;142.40;;;135.98;;
53439;SDS011;39333;47.044;15.080;2022-10-16T03:13:37;142.63;;;136.40;;
53439;SDS011;39333;47.044;15.080;2022-10-16T03:16:03;137.95;;;131.50;;
53439;SDS011;39333;47.044;15.080;2022-10-16T03:18:30;137.63;;;131.73;;
53439;SDS011;39333;47.044;15.080;2022-10-16T03:20:57;135.15;;;128.77;;
53439;SDS011;39333;47.044;15.080;2022-10-16T03:23:24;138.60;;;132.40;;
53439;SDS011;39333;47.044;15.080;2022-10-16T03:25:50;140.30;;;133.48;;
53439;SDS011;39333;47.044;15.080;2022-10-16T03:28:17;141.52;;;135.30;;
53439;SDS011;39333;47.044;15.080;2022-10-16T03:30:43;137.30;;;131.30;;
53439;SDS011;39333;47.044;15.080;2022-10-16T03:33:10;140.13;;;133.57;;
53439;SDS011;39333;47.044;15.080;2022-10-16T03:35:37;133.20;;;127.28;;
53439;SDS011;39333;47.044;15.080;2022-10-16T03:38:04;138.32;;;132.43;;
53439;SDS011;39333;47.044;15.080;2022-10-16T03:40:31;139.52;;;133.00;;
53439;SDS011;39333;47.044;15.080;2022-10-16T03:43:00;140.98;;;134.35;;
53439;SDS011;39333;47.044;15.080;2022-10-16T03:45:27;144.20;;;137.70;;
53439;SDS011;39333;47.044;15.080;2022-10-16T03:47:54;136.20;;;130.18;;
53439;SDS011;39333;47.044;15.080;2022-10-16T03:50:21;146.27;;;139.68;;
53439;SDS011;39333;47.044;15.080;2022-10-16T03:52:47;142.07;;;136.07;;
53439;SDS011;39333;47.044;15.080;2022-10-16T03:55:14;144.18;;;137.77;;
53439;SDS011;39333;47.044;15.080;2022-10-16T03:57:41;138.85;;;132.38;;
53439;SDS011;39333;47.044;15.080;2022-10-16T04:00:07;139.18;;;133.18;;
53439;SDS011;39333;47.044;15.080;2022-10-16T04:02:37;143.85;;;137.63;;
53439;SDS011;39333;47.044;15.080;2022-10-16T04:05:05;136.55;;;130.57;;
53439;SDS011;39333;47.044;15.080;2022-10-16T04:07:32;139.35;;;133.52;;
53439;SDS011;39333;47.044;15.080;2022-10-16T04:09:58;140.65;;;134.48;;
53439;SDS011;39333;47.044;15.080;2022-10-16T04:12:25;145.68;;;138.90;;
53439;SDS011;39333;47.044;15.080;2022-10-16T04:14:52;134.98;;;129.05;;
53439;SDS011;39333;47.044;15.080;2022-10-16T04:17:19;142.00;;;135.73;;
53439;SDS011;39333;47.044;15.080;2022-10-16T04:19:46;136.73;;;130.80;;
53439;SDS011;39333;47.044;15.080;2022-10-16T04:22:12;140.07;;;134.07;;
53439;SDS011;39333;47.044;15.080;2022-10-16T04:24:39;139.65;;;133.55;;
53439;SDS011;39333;47.044;15.080;2022-10-16T04:27:06;138.50;;;132.10;;
53439;SDS011;39333;47.044;15.080;2022-10-16T04:29:33;146.50;;;139.82;;
53439;SDS011;39333;47.044;15.080;2022-10-16T04:31:59;138.50;;;132.35;;
53439;SDS011;39333;47.044;15.080;2022-10-16T04:34:26;137.55;;;131.50;;
53439;SDS011;39333;47.044;15.080;2022-10-16T04:36:53;140.73;;;134.68;;
53439;SDS011;39333;47.044;15.080;2022-10-16T04:39:19;139.77;;;133.57;;
53439;SDS011;39333;47.044;15.080;2022-10-16T04:41:46;136.65;;;130.63;;
53439;SDS011;39333;47.044;15.080;2022-10-16T04:44:13;134.52;;;128.43;;
53439;SDS011;39333;47.044;15.080;2022-10-16T04:46:39;147.85;;;140.90;;
53439;SDS011;39333;47.044;15.080;2022-10-16T04:49:06;140.23;;;133.57;;
53439;SDS011;39333;47.044;15.080;2022-10-16T04:51:32;134.40;;;128.27;;
53439;SDS011;39333;47.044;15.080;2022-10-16T04:53:59;135.27;;;129.23;;
53439;SDS011;39333;47.044;15.080;2022-10-16T04:56:26;143.25;;;136.65;;
53439;SDS011;39333;47.044;15.080;2022-10-16T04:58:53;132.63;;;126.75;;
53439;SDS011;39333;47.044;15.080;2022-10-16T05:01:20;143.02;;;136.25;;
53439;SDS011;39333;47.044;15.080;2022-10-16T05:03:46;137.55;;;130.95;;
53439;SDS011;39333;47.044;15.080;2022-10-16T05:06:13;140.50;;;133.68;;
53439;SDS011;39333;47.044;15.080;2022-10-16T05:08:40;134.82;;;128.45;;
53439;SDS011;39333;47.044;15.080;2022-10-16T05:11:06;141.10;;;134.65;;
53439;SDS011;39333;47.044;15.080;2022-10-16T05:13:33;134.77;;;128.75;;
53439;SDS011;39333;47.044;15.080;2022-10-16T05:15:59;141.15;;;134.98;;
53439;SDS011;39333;47.044;15.080;2022-10-16T05:18:26;146.40;;;140.07;;
53439;SDS011;39333;47.044;15.080;2022-10-16T05:20:53;136.48;;;130.40;;
53439;SDS011;39333;47.044;15.080;2022-10-16T05:23:19;135.52;;;129.38;;
53439;SDS011;39333;47.044;15.080;2022-10-16T05:25:56;138.75;;;132.48;;
53439;SDS011;39333;47.044;15.080;2022-10-16T05:28:25;140.60;;;133.80;;
53439;SDS011;39333;47.044;15.080;2022-10-16T05:30:52;143.25;;;136.68;;
53439;SDS011;39333;47.044;15.080;2022-10-16T05:33:20;140.27;;;134.10;;
53439;SDS011;39333;47.044;15.080;2022-10-16T05:35:48;136.02;;;129.60;;
53439;SDS011;39333;47.044;15.080;2022-10-16T05:38:16;146.68;;;139.65;;
53439;SDS011;39333;47.044;15.080;2022-10-16T05:40:50;140.60;;;134.20;;
53439;SDS011;39333;47.044;15.080;2022-10-16T05:43:18;143.55;;;137.07;;
53439;SDS011;39333;47.044;15.080;2022-10-16T05:45:53;136.05;;;129.82;;
53439;SDS011;39333;47.044;15.080;2022-10-16T05:48:23;136.05;;;130.05;;
53439;SDS011;39333;47.044;15.080;2022-10-16T05:51:04;140.60;;;134.32;;
53439;SDS011;39333;47.044;15.080;2022-10-16T05:53:36;148.02;;;140.38;;
53439;SDS011;39333;47.044;15.080;2022-10-16T05:56:05;159.88;;;149.82;;
53439;SDS011;39333;47.044;15.080;2022-10-16T05:58:36;157.95;;;148.68;;
53439;SDS011;39333;47.044;15.080;2022-10-16T06:01:05;164.82;;;155.90;;
53439;SDS011;39333;47.044;15.080;2022-10-16T06:03:41;144.32;;;136.88;;
53439;SDS011;39333;47.044;15.080;2022-10-16T06:06:13;150.70;;;143.35;;
53439;SDS011;39333;47.044;15.080;2022-10-16T06:08:41;145.60;;;138.93;;
53439;SDS011;39333;47.044;15.080;2022-10-16T06:11:11;213.27;;;193.15;;
53439;SDS011;39333;47.044;15.080;2022-10-16T06:13:39;160.13;;;150.15;;
53439;SDS011;39333;47.044;15.080;2022-10-16T06:16:09;143.55;;;136.50;;
53439;SDS011;39333;47.044;15.080;2022-10-16T06:18:36;136.70;;;130.20;;
53439;SDS011;39333;47.044;15.080;2022-10-16T06:21:37;146.73;;;139.02;;
53439;SDS011;39333;47.044;15.080;2022-10-16T06:23:56;154.73;;;145.95;;
53439;SDS011;39333;47.044;15.080;2022-10-16T06:26:25;153.27;;;145.18;;
53439;SDS011;39333;47.044;15.080;2022-10-16T06:28:56;151.48;;;142.82;;
53439;SDS011;39333;47.044;15.080;2022-10-16T06:31:25;154.63;;;145.60;;
53439;SDS011;39333;47.044;15.080;2022-10-16T06:33:54;159.57;;;148.88;;
53439;SDS011;39333;47.044;15.080;2022-10-16T06:36:22;155.45;;;146.88;;
53439;SDS011;39333;47.044;15.080;2022-10-16T06:38:50;160.05;;;151.48;;
53439;SDS011;39333;47.044;15.080;2022-10-16T06:41:18;151.27;;;143.45;;
53439;SDS011;39333;47.044;15.080;2022-10-16T06:43:46;148.77;;;141.25;;
53439;SDS011;39333;47.044;15.080;2022-10-16T06:46:15;144.68;;;137.07;;
53439;SDS011;39333;47.044;15.080;2022-10-16T06:48:44;159.32;;;151.32;;
53439;SDS011;39333;47.044;15.080;2022-10-16T06:51:12;148.75;;;140.88;;
53439;SDS011;39333;47.044;15.080;2022-10-16T06:53:45;153.45;;;145.80;;
53439;SDS011;39333;47.044;15.080;2022-10-16T06:56:28;156.07;;;147.57;;
53439;SDS011;39333;47.044;15.080;2022-10-16T06:58:57;164.50;;;155.75;;
53439;SDS011;39333;47.044;15.080;2022-10-16T07:01:24;155.25;;;147.13;;
53439;SDS011;39333;47.044;15.080;2022-10-16T07:03:52;155.68;;;147.10;;
53439;SDS011;39333;47.044;15.080;2022-10-16T07:06:20;151.27;;;143.43;;
53439;SDS011;39333;47.044;15.080;2022-10-16T07:08:50;164.23;;;155.35;;
53439;SDS011;39333;47.044;15.080;2022-10-16T07:11:18;159.20;;;151.48;;
53439;SDS011;39333;47.044;15.080;2022-10-16T07:13:47;148.43;;;140.75;;
53439;SDS011;39333;47.044;15.080;2022-10-16T07:16:21;160.02;;;151.35;;
53439;SDS011;39333;47.044;15.080;2022-10-16T07:18:53;148.82;;;142.02;;
53439;SDS011;39333;47.044;15.080;2022-10-16T07:21:27;155.13;;;148.10;;
53439;SDS011;39333;47.044;15.080;2022-10-16T07:23:56;151.80;;;145.05;;
53439;SDS011;39333;47.044;15.080;2022-10-16T07:26:24;147.30;;;140.60;;
53439;SDS011;39333;47.044;15.080;2022-10-16T07:28:52;149.50;;;142.98;;
53439;SDS011;39333;47.044;15.080;2022-10-16T07:31:19;158.45;;;151.57;;
53439;SDS011;39333;47.044;15.080;2022-10-16T07:33:47;151.65;;;144.95;;
53439;SDS011;39333;47.044;15.080;2022-10-16T07:36:15;153.63;;;146.93;;
53439;SDS011;39333;47.044;15.080;2022-10-16T07:38:44;157.02;;;150.05;;
53439;SDS011;39333;47.044;15.080;2022-10-16T07:41:12;157.77;;;150.98;;
53439;SDS011;39333;47.044;15.080;2022-10-16T07:43:46;157.77;;;150.85;;
53439;SDS011;39333;47.044;15.080;2022-10-16T07:46:14;159.15;;;152.30;;
53439;SDS011;39333;47.044;15.080;2022-10-16T07:48:41;156.98;;;150.10;;
53439;SDS011;39333;47.044;15.080;2022-10-16T07:51:12;151.85;;;145.57;;
53439;SDS011;39333;47.044;15.080;2022-10-16T07:53:40;161.57;;;154.68;;
53439;SDS011;39333;47.044;15.080;2022-10-16T07:56:07;156.88;;;150.30;;
53439;SDS011;39333;47.044;15.080;2022-10-16T07:58:34;158.52;;;151.48;;
53439;SDS011;39333;47.044;15.080;2022-10-16T08:01:05;151.32;;;145.18;;
53439;SDS011;39333;47.044;15.080;2022-10-16T08:03:33;159.70;;;152.95;;
53439;SDS011;39333;47.044;15.080;2022-10-16T08:06:00;164.80;;;157.60;;
53439;SDS011;39333;47.044;15.080;2022-10-16T08:08:27;164.57;;;157.68;;
53439;SDS011;39333;47.044;15.080;2022-10-16T08:10:54;159.10;;;152.48;;
53439;SDS011;39333;47.044;15.080;2022-10-16T08:13:21;161.35;;;154.60;;
53439;SDS011;39333;47.044;15.080;2022-10-16T08:15:48;159.95;;;153.15;;
53439;SDS011;39333;47.044;15.080;2022-10-16T08:18:15;157.13;;;150.93;;
53439;SDS011;39333;47.044;15.080;2022-10-16T08:20:42;163.30;;;156.30;;
53439;SDS011;39333;47.044;15.080;2022-10-16T08:23:10;158.38;;;151.88;;
53439;SDS011;39333;47.044;15.080;2022-10-16T08:25:39;161.93;;;155.25;;
53439;SDS011;39333;47.044;15.080;2022-10-16T08:28:07;166.02;;;159.15;;
53439;SDS011;39333;47.044;15.080;2022-10-16T08:30:36;160.70;;;154.23;;
53439;SDS011;39333;47.044;15.080;2022-10-16T08:33:03;161.80;;;155.10;;
53439;SDS011;39333;47.044;15.080;2022-10-16T08:35:30;161.90;;;155.27;;
53439;SDS011;39333;47.044;15.080;2022-10-16T08:38:02;169.05;;;162.15;;
53439;SDS011;39333;47.044;15.080;2022-10-16T08:40:30;159.05;;;152.75;;
53439;SDS011;39333;47.044;15.080;2022-10-16T08:50:47;175.23;;;167.80;;
53439;SDS011;39333;47.044;15.080;2022-10-16T08:53:22;164.60;;;158.05;;
53439;SDS011;39333;47.044;15.080;2022-10-16T08:55:54;170.40;;;163.40;;
53439;SDS011;39333;47.044;15.080;2022-10-16T08:58:21;161.57;;;154.90;;
53439;SDS011;39333;47.044;15.080;2022-10-16T09:00:56;172.93;;;165.93;;
53439;SDS011;39333;47.044;15.080;2022-10-16T09:08:50;167.48;;;160.68;;
53439;SDS011;39333;47.044;15.080;2022-10-16T09:11:49;172.88;;;165.88;;
53439;SDS011;39333;47.044;15.080;2022-10-16T09:16:57;168.35;;;161.43;;
53439;SDS011;39333;47.044;15.080;2022-10-16T09:19:36;163.30;;;156.57;;
53439;SDS011;39333;47.044;15.080;2022-10-16T09:22:12;168.30;;;161.35;;
53439;SDS011;39333;47.044;15.080;2022-10-16T09:24:41;167.30;;;160.48;;
53439;SDS011;39333;47.044;15.080;2022-10-16T09:27:14;165.82;;;158.90;;
53439;SDS011;39333;47.044;15.080;2022-10-16T09:29:41;167.73;;;160.63;;
53439;SDS011;39333;47.044;15.080;2022-10-16T09:32:15;168.18;;;161.30;;
53439;SDS011;39333;47.044;15.080;2022-10-16T09:34:47;168.57;;;161.65;;
53439;SDS011;39333;47.044;15.080;2022-10-16T09:37:17;168.70;;;161.82;;
53439;SDS011;39333;47.044;15.080;2022-10-16T09:39:47;164.75;;;157.90;;
53439;SDS011;39333;47.044;15.080;2022-10-16T09:42:18;161.10;;;154.52;;
53439;SDS011;39333;47.044;15.080;2022-10-16T09:44:48;167.02;;;160.13;;
53439;SDS011;39333;47.044;15.080;2022-10-16T09:47:21;174.68;;;167.43;;
53439;SDS011;39333;47.044;15.080;2022-10-16T09:52:28;164.07;;;157.48;;
53439;SDS011;39333;47.044;15.080;2022-10-16T09:55:12;172.38;;;165.43;;
53439;SDS011;39333;47.044;15.080;2022-10-16T09:57:51;166.43;;;159.70;;
53439;SDS011;39333;47.044;15.080;2022-10-16T10:00:19;169.00;;;162.05;;
53439;SDS011;39333;47.044;15.080;2022-10-16T10:02:47;172.75;;;165.45;;
53439;SDS011;39333;47.044;15.080;2022-10-16T10:05:24;171.05;;;164.05;;
53439;SDS011;39333;47.044;15.080;2022-10-16T10:08:00;161.80;;;155.45;;
53439;SDS011;39333;47.044;15.080;2022-10-16T10:10:32;165.85;;;158.90;;
53439;SDS011;39333;47.044;15.080;2022-10-16T10:13:02;162.05;;;155.52;;
53439;SDS011;39333;47.044;15.080;2022-10-16T10:15:33;173.10;;;165.95;;
53439;SDS011;39333;47.044;15.080;2022-10-16T10:18:02;165.85;;;159.13;;
53439;SDS011;39333;47.044;15.080;2022-10-16T10:20:35;174.52;;;167.32;;
53439;SDS011;39333;47.044;15.080;2022-10-16T10:23:21;171.55;;;164.65;;
53439;SDS011;39333;47.044;15.080;2022-10-16T10:31:41;170.57;;;163.67;;
53439;SDS011;39333;47.044;15.080;2022-10-16T10:40:11;171.13;;;164.15;;
53439;SDS011;39333;47.044;15.080;2022-10-16T10:45:34;161.80;;;155.13;;
53439;SDS011;39333;47.044;15.080;2022-10-16T10:51:05;163.18;;;156.55;;
53439;SDS011;39333;47.044;15.080;2022-10-16T10:59:24;163.20;;;156.50;;
53439;SDS011;39333;47.044;15.080;2022-10-16T11:06:57;167.27;;;160.57;;
53439;SDS011;39333;47.044;15.080;2022-10-16T11:09:41;165.40;;;158.27;;
53439;SDS011;39333;47.044;15.080;2022-10-16T11:12:20;173.05;;;165.98;;
53439;SDS011;39333;47.044;15.080;2022-10-16T11:17:19;160.13;;;153.73;;
53439;SDS011;39333;47.044;15.080;2022-10-16T11:20:02;168.70;;;161.60;;
53439;SDS011;39333;47.044;15.080;2022-10-16T11:25:37;175.88;;;168.57;;
53439;SDS011;39333;47.044;15.080;2022-10-16T11:28:14;165.38;;;158.52;;
53439;SDS011;39333;47.044;15.080;2022-10-16T11:33:38;166.40;;;159.75;;
53439;SDS011;39333;47.044;15.080;2022-10-16T11:36:23;175.88;;;168.38;;
53439;SDS011;39333;47.044;15.080;2022-10-16T11:38:59;175.38;;;167.80;;
53439;SDS011;39333;47.044;15.080;2022-10-16T11:41:34;170.80;;;163.50;;
53439;SDS011;39333;47.044;15.080;2022-10-16T11:49:57;171.03;;;163.47;;
53439;SDS011;39333;47.044;15.080;2022-10-16T11:52:33;165.18;;;158.43;;
53439;SDS011;39333;47.044;15.080;2022-10-16T11:55:16;163.48;;;156.85;;
53439;SDS011;39333;47.044;15.080;2022-10-16T11:57:54;167.18;;;160.25;;
53439;SDS011;39333;47.044;15.080;2022-10-16T12:03:46;172.57;;;165.65;;
53439;SDS011;39333;47.044;15.080;2022-10-16T12:06:25;168.88;;;161.95;;
53439;SDS011;39333;47.044;15.080;2022-10-16T12:08:59;171.65;;;164.40;;
53439;SDS011;39333;47.044;15.080;2022-10-16T12:11:37;172.32;;;165.30;;
53439;SDS011;39333;47.044;15.080;2022-10-16T12:14:06;173.18;;;166.07;;
53439;SDS011;39333;47.044;15.080;2022-10-16T12:19:21;173.07;;;165.88;;
53439;SDS011;39333;47.044;15.080;2022-10-16T12:21:50;171.25;;;163.95;;
53439;SDS011;39333;47.044;15.080;2022-10-16T12:26:48;171.43;;;164.52;;
53439;SDS011;39333;47.044;15.080;2022-10-16T12:32:52;170.82;;;163.93;;
53439;SDS011;39333;47.044;15.080;2022-10-16T12:37:46;171.10;;;164.23;;
53439;SDS011;39333;47.044;15.080;2022-10-16T12:40:14;177.82;;;170.68;;
53439;SDS011;39333;47.044;15.080;2022-10-16T12:42:53;171.45;;;164.50;;
53439;SDS011;39333;47.044;15.080;2022-10-16T12:48:00;170.52;;;163.52;;
53439;SDS011;39333;47.044;15.080;2022-10-16T12:50:36;172.90;;;165.57;;
53439;SDS011;39333;47.044;15.080;2022-10-16T12:53:17;172.88;;;165.68;;
53439;SDS011;39333;47.044;15.080;2022-10-16T12:55:57;172.23;;;165.13;;
53439;SDS011;39333;47.044;15.080;2022-10-16T13:01:56;166.75;;;159.98;;
53439;SDS011;39333;47.044;15.080;2022-10-16T13:10:15;169.82;;;162.82;;
53439;SDS011;39333;47.044;15.080;2022-10-16T13:13:09;167.45;;;160.57;;
53439;SDS011;39333;47.044;15.080;2022-10-16T13:16:02;170.88;;;163.98;;
53439;SDS011;39333;47.044;15.080;2022-10-16T13:21:31;170.00;;;163.13;;
53439;SDS011;39333;47.044;15.080;2022-10-16T13:24:02;171.45;;;164.23;;
53439;SDS011;39333;47.044;15.080;2022-10-16T13:29:18;169.27;;;162.38;;
53439;SDS011;39333;47.044;15.080;2022-10-16T13:31:46;174.15;;;167.13;;
53439;SDS011;39333;47.044;15.080;2022-10-16T13:34:17;173.18;;;166.02;;
53439;SDS011;39333;47.044;15.080;2022-10-16T13:36:48;172.48;;;165.45;;
53439;SDS011;39333;47.044;15.080;2022-10-16T13:42:02;179.45;;;171.90;;
53439;SDS011;39333;47.044;15.080;2022-10-16T13:44:42;178.35;;;171.00;;
53439;SDS011;39333;47.044;15.080;2022-10-16T13:47:16;175.48;;;168.27;;
53439;SDS011;39333;47.044;15.080;2022-10-16T13:49:44;170.07;;;163.02;;
53439;SDS011;39333;47.044;15.080;2022-10-16T13:52:15;173.32;;;166.25;;
53439;SDS011;39333;47.044;15.080;2022-10-16T13:54:44;170.40;;;163.43;;
53439;SDS011;39333;47.044;15.080;2022-10-16T13:57:14;172.55;;;165.45;;
53439;SDS011;39333;47.044;15.080;2022-10-16T13:59:52;173.00;;;166.00;;
53439;SDS011;39333;47.044;15.080;2022-10-16T14:04:55;173.80;;;166.70;;
53439;SDS011;39333;47.044;15.080;2022-10-16T14:07:24;171.70;;;164.82;;
53439;SDS011;39333;47.044;15.080;2022-10-16T14:09:54;169.85;;;163.07;;
53439;SDS011;39333;47.044;15.080;2022-10-16T14:12:21;177.80;;;170.52;;
53439;SDS011;39333;47.044;15.080;2022-10-16T14:14:53;177.32;;;169.82;;
53439;SDS011;39333;47.044;15.080;2022-10-16T14:17:23;172.55;;;165.20;;
53439;SDS011;39333;47.044;15.080;2022-10-16T14:19:53;181.43;;;173.32;;
53439;SDS011;39333;47.044;15.080;2022-10-16T14:25:01;171.30;;;164.10;;
53439;SDS011;39333;47.044;15.080;2022-10-16T14:27:40;179.18;;;171.35;;
53439;SDS011;39333;47.044;15.080;2022-10-16T14:30:14;176.10;;;168.82;;
53439;SDS011;39333;47.044;15.080;2022-10-16T14:32:52;179.07;;;171.70;;
53439;SDS011;39333;47.044;15.080;2022-10-16T14:35:33;177.70;;;170.30;;
53439;SDS011;39333;47.044;15.080;2022-10-16T14:38:05;173.05;;;165.85;;
53439;SDS011;39333;47.044;15.080;2022-10-16T14:40:46;171.40;;;164.30;;
53439;SDS011;39333;47.044;15.080;2022-10-16T14:43:20;172.00;;;164.80;;
53439;SDS011;39333;47.044;15.080;2022-10-16T14:45:50;171.57;;;164.32;;
53439;SDS011;39333;47.044;15.080;2022-10-16T14:48:19;175.77;;;168.35;;
53439;SDS011;39333;47.044;15.080;2022-10-16T14:50:47;173.45;;;165.88;;
53439;SDS011;39333;47.044;15.080;2022-10-16T14:53:13;172.23;;;165.05;;
53439;SDS011;39333;47.044;15.080;2022-10-16T14:55:41;170.88;;;163.60;;
53439;SDS011;39333;47.044;15.080;2022-10-16T15:00:43;169.07;;;162.03;;
53439;SDS011;39333;47.044;15.080;2022-10-16T15:03:09;174.07;;;166.85;;
53439;SDS011;39333;47.044;15.080;2022-10-16T15:05:36;178.10;;;170.88;;
53439;SDS011;39333;47.044;15.080;2022-10-16T15:08:03;170.20;;;163.13;;
53439;SDS011;39333;47.044;15.080;2022-10-16T15:10:31;171.05;;;163.95;;
53439;SDS011;39333;47.044;15.080;2022-10-16T15:13:01;173.57;;;166.38;;
53439;SDS011;39333;47.044;15.080;2022-10-16T15:18:07;172.05;;;165.02;;
53439;SDS011;39333;47.044;15.080;2022-10-16T15:20:35;177.57;;;170.23;;
53439;SDS011;39333;47.044;15.080;2022-10-16T15:23:04;173.43;;;166.18;;
53439;SDS011;39333;47.044;15.080;2022-10-16T15:25:37;172.98;;;165.45;;
53439;SDS011;39333;47.044;15.080;2022-10-16T15:30:36;177.07;;;168.88;;
53439;SDS011;39333;47.044;15.080;2022-10-16T15:33:03;181.50;;;173.63;;
53439;SDS011;39333;47.044;15.080;2022-10-16T15:35:31;178.77;;;170.77;;
53439;SDS011;39333;47.044;15.080;2022-10-16T15:37:57;179.18;;;171.30;;
53439;SDS011;39333;47.044;15.080;2022-10-16T15:40:24;177.40;;;169.63;;
53439;SDS011;39333;47.044;15.080;2022-10-16T15:42:51;180.05;;;172.00;;
53439;SDS011;39333;47.044;15.080;2022-10-16T15:45:18;172.38;;;165.25;;
53439;SDS011;39333;47.044;15.080;2022-10-16T15:47:46;181.85;;;174.15;;
53439;SDS011;39333;47.044;15.080;2022-10-16T15:50:13;180.55;;;172.65;;
53439;SDS011;39333;47.044;15.080;2022-10-16T15:52:41;176.32;;;168.88;;
53439;SDS011;39333;47.044;15.080;2022-10-16T15:55:09;181.27;;;173.48;;
53439;SDS011;39333;47.044;15.080;2022-10-16T15:57:37;183.38;;;174.95;;
53439;SDS011;39333;47.044;15.080;2022-10-16T16:00:06;177.50;;;169.80;;
53439;SDS011;39333;47.044;15.080;2022-10-16T16:02:38;176.02;;;168.60;;
53439;SDS011;39333;47.044;15.080;2022-10-16T16:05:05;176.60;;;169.00;;
53439;SDS011;39333;47.044;15.080;2022-10-16T16:07:34;173.93;;;166.55;;
53439;SDS011;39333;47.044;15.080;2022-10-16T16:10:03;171.93;;;164.50;;
53439;SDS011;39333;47.044;15.080;2022-10-16T16:12:31;174.70;;;167.27;;
53439;SDS011;39333;47.044;15.080;2022-10-16T16:14:58;173.70;;;166.20;;
53439;SDS011;39333;47.044;15.080;2022-10-16T16:17:30;172.02;;;164.70;;